createdAt,value
2018-07-13T00:01:33.587Z,23.10
2018-07-13T00:04:02.494Z,22.77
2018-07-13T00:06:31.324Z,23.30
2018-07-13T00:09:00.255Z,22.97
2018-07-13T00:11:29.067Z,23.17
2018-07-13T00:14:15.452Z,24.67
2018-07-13T00:16:45.128Z,22.33
2018-07-13T00:19:14.778Z,23.90
2018-07-13T00:21:43.650Z,24.57
2018-07-13T00:24:12.592Z,21.33
2018-07-13T00:26:41.504Z,22.00
2018-07-13T00:29:10.761Z,22.30
2018-07-13T00:31:40.728Z,25.27
2018-07-13T00:34:09.580Z,24.83
2018-07-13T00:36:38.498Z,24.77
2018-07-13T00:39:11.414Z,25.07
2018-07-13T00:41:40.336Z,23.77
2018-07-13T00:44:09.285Z,22.13
2018-07-13T00:46:38.135Z,20.97
2018-07-13T00:49:06.966Z,22.37
2018-07-13T00:51:35.865Z,23.63
2018-07-13T00:54:04.801Z,22.07
2018-07-13T00:56:33.693Z,21.47
2018-07-13T00:59:02.594Z,19.53
2018-07-13T01:01:31.419Z,18.17
2018-07-13T01:04:00.235Z,15.43
2018-07-13T01:06:29.023Z,13.10
2018-07-13T01:08:57.661Z,13.60
2018-07-13T01:11:26.520Z,13.43
2018-07-13T01:13:55.314Z,13.13
2018-07-13T01:16:24.455Z,15.53
2018-07-13T01:18:53.355Z,13.33
2018-07-13T01:21:22.187Z,14.20
2018-07-13T01:23:50.813Z,14.40
2018-07-13T01:26:19.653Z,13.10
2018-07-13T01:28:48.273Z,12.83
2018-07-13T01:31:17.043Z,13.03
2018-07-13T01:33:45.802Z,13.30
2018-07-13T01:36:14.560Z,13.37
2018-07-13T01:38:43.435Z,12.93
2018-07-13T01:41:12.472Z,13.53
2018-07-13T01:43:41.382Z,12.87
2018-07-13T01:46:10.004Z,13.03
2018-07-13T01:48:38.860Z,13.07
2018-07-13T01:51:07.530Z,12.03
2018-07-13T01:53:36.382Z,11.63
2018-07-13T01:56:05.363Z,10.40
2018-07-13T01:58:34.214Z,9.90
2018-07-13T02:01:04.127Z,9.33
2018-07-13T02:03:56.240Z,10.63
2018-07-13T02:06:25.089Z,9.93
2018-07-13T02:08:53.921Z,10.27
2018-07-13T02:11:22.702Z,9.40
2018-07-13T02:13:51.990Z,10.13
2018-07-13T02:16:20.816Z,10.13
2018-07-13T02:18:49.728Z,9.50
2018-07-13T02:21:18.921Z,10.93
2018-07-13T02:23:47.765Z,10.53
2018-07-13T02:26:16.566Z,10.03
2018-07-13T02:28:45.388Z,10.70
2018-07-13T02:31:14.255Z,11.27
2018-07-13T02:33:43.130Z,11.07
2018-07-13T02:36:11.889Z,11.53
2018-07-13T02:38:41.011Z,11.23
2018-07-13T02:41:09.860Z,12.67
2018-07-13T02:43:38.691Z,10.80
2018-07-13T02:46:07.561Z,10.53
2018-07-13T02:48:36.174Z,11.10
2018-07-13T02:51:05.132Z,10.27
2018-07-13T02:53:33.838Z,10.07
2018-07-13T02:56:02.731Z,10.90
2018-07-13T02:58:31.534Z,9.57
2018-07-13T03:01:00.424Z,10.27
2018-07-13T03:03:29.251Z,10.30
2018-07-13T03:05:58.116Z,10.20
2018-07-13T03:08:26.983Z,10.30
2018-07-13T03:10:55.813Z,10.40
2018-07-13T03:13:24.843Z,9.93
2018-07-13T03:15:53.499Z,9.80
2018-07-13T03:18:22.287Z,11.40
2018-07-13T03:20:51.183Z,9.93
2018-07-13T03:23:19.973Z,10.30
2018-07-13T03:25:48.847Z,10.37
2018-07-13T03:28:17.657Z,10.77
2018-07-13T03:30:46.504Z,10.67
2018-07-13T03:33:15.352Z,10.43
2018-07-13T03:35:44.147Z,12.00
2018-07-13T03:38:12.975Z,10.67
2018-07-13T03:40:41.805Z,11.50
2018-07-13T03:43:10.648Z,13.13
2018-07-13T03:45:45.628Z,12.47
2018-07-13T03:48:14.483Z,12.23
2018-07-13T03:50:43.275Z,12.70
2018-07-13T03:53:12.232Z,13.13
2018-07-13T03:55:41.108Z,13.50
2018-07-13T03:58:10.024Z,13.47
2018-07-13T04:00:38.733Z,12.70
2018-07-13T04:03:07.426Z,13.80
2018-07-13T04:05:36.242Z,12.77
2018-07-13T04:08:05.129Z,12.03
2018-07-13T04:10:33.939Z,12.90
2018-07-13T04:13:02.809Z,12.57
2018-07-13T04:15:31.691Z,11.80
2018-07-13T04:18:00.584Z,13.20
2018-07-13T04:20:29.555Z,12.03
2018-07-13T04:22:58.354Z,12.50
2018-07-13T04:25:27.352Z,12.30
2018-07-13T04:27:56.398Z,13.87
2018-07-13T04:30:25.348Z,12.43
2018-07-13T04:32:54.251Z,11.87
2018-07-13T04:35:23.057Z,11.93
2018-07-13T04:37:51.963Z,12.47
2018-07-13T04:40:20.821Z,11.97
2018-07-13T04:42:49.637Z,11.10
2018-07-13T04:45:24.964Z,11.87
2018-07-13T04:47:53.975Z,11.13
2018-07-13T04:50:22.928Z,11.90
2018-07-13T04:52:52.392Z,12.73
2018-07-13T04:55:21.572Z,13.10
2018-07-13T04:57:50.597Z,12.63
2018-07-13T05:00:19.726Z,12.07
2018-07-13T05:02:48.991Z,11.33
2018-07-13T05:05:18.037Z,11.13
2018-07-13T05:07:46.856Z,11.83
2018-07-13T05:10:15.875Z,11.43
2018-07-13T05:12:44.703Z,12.53
2018-07-13T05:15:13.703Z,12.20
2018-07-13T05:17:42.599Z,10.67
2018-07-13T05:20:11.578Z,12.53
2018-07-13T05:22:40.567Z,12.77
2018-07-13T05:25:09.619Z,12.33
2018-07-13T05:27:38.771Z,12.97
2018-07-13T05:30:08.158Z,13.60
2018-07-13T05:32:37.248Z,12.90
2018-07-13T05:35:06.015Z,13.60
2018-07-13T05:37:34.979Z,13.50
2018-07-13T05:40:04.605Z,13.57
2018-07-13T05:42:33.836Z,14.27
2018-07-13T05:45:02.980Z,14.97
2018-07-13T05:47:32.028Z,14.47
2018-07-13T05:50:01.088Z,14.83
2018-07-13T05:52:30.141Z,13.67
2018-07-13T05:54:59.568Z,13.63
2018-07-13T05:57:28.653Z,14.27
2018-07-13T05:59:57.650Z,15.20
2018-07-13T06:02:26.664Z,13.50
2018-07-13T06:04:55.697Z,14.43
2018-07-13T06:07:24.846Z,15.80
2018-07-13T06:09:53.857Z,14.43
2018-07-13T06:12:22.891Z,14.77
2018-07-13T06:14:51.712Z,16.30
2018-07-13T06:17:20.540Z,16.67
2018-07-13T06:19:49.395Z,16.37
2018-07-13T06:22:18.291Z,17.07
2018-07-13T06:24:47.084Z,16.13
2018-07-13T06:27:15.892Z,16.23
2018-07-13T06:29:44.784Z,16.53
2018-07-13T06:32:13.602Z,16.27
2018-07-13T06:34:42.553Z,14.63
2018-07-13T06:37:11.587Z,16.27
2018-07-13T06:39:40.643Z,16.70
2018-07-13T06:42:09.566Z,15.77
2018-07-13T06:44:38.646Z,15.57
2018-07-13T06:47:07.374Z,16.57
2018-07-13T06:49:36.260Z,14.63
2018-07-13T06:52:05.573Z,13.20
2018-07-13T06:54:34.516Z,12.50
2018-07-13T06:57:03.365Z,13.20
2018-07-13T06:59:32.296Z,12.47
2018-07-13T07:02:01.493Z,12.63
2018-07-13T07:04:32.520Z,13.20
2018-07-13T07:07:08.491Z,13.87
2018-07-13T07:09:38.199Z,13.53
2018-07-13T07:12:49.672Z,12.67
2018-07-13T07:15:18.526Z,12.73
2018-07-13T07:17:47.645Z,13.47
2018-07-13T07:20:16.776Z,14.30
2018-07-13T07:22:46.145Z,14.53
2018-07-13T07:25:15.127Z,12.70
2018-07-13T07:27:44.465Z,11.40
2018-07-13T07:30:13.770Z,12.30
2018-07-13T07:32:43.331Z,15.07
2018-07-13T07:35:12.159Z,17.17
2018-07-13T07:37:41.220Z,18.10
2018-07-13T07:40:10.447Z,18.10
2018-07-13T07:42:39.219Z,19.73
2018-07-13T07:45:08.221Z,19.93
2018-07-13T07:47:37.123Z,20.00
2018-07-13T07:50:05.976Z,18.57
2018-07-13T07:52:34.812Z,21.73
2018-07-13T07:55:03.595Z,21.93
2018-07-13T07:57:32.620Z,18.33
2018-07-13T08:00:01.475Z,17.97
2018-07-13T08:02:30.307Z,17.83
2018-07-13T08:04:59.100Z,19.50
2018-07-13T08:07:27.989Z,18.57
2018-07-13T08:09:56.772Z,19.10
2018-07-13T08:12:25.622Z,17.83
2018-07-13T08:14:54.493Z,17.93
2018-07-13T08:17:23.680Z,18.13
2018-07-13T08:19:52.631Z,17.00
2018-07-13T08:22:34.351Z,17.07
2018-07-13T08:25:06.501Z,14.60
2018-07-13T08:27:39.456Z,15.03
2018-07-13T08:30:50.477Z,15.10
2018-07-13T08:33:19.394Z,15.13
2018-07-13T08:35:48.180Z,14.80
2018-07-13T08:38:17.004Z,15.13
2018-07-13T08:40:45.968Z,14.03
2018-07-13T08:43:14.896Z,15.27
2018-07-13T08:45:49.889Z,16.50
2018-07-13T08:48:18.814Z,16.33
2018-07-13T08:50:47.824Z,14.83
2018-07-13T08:53:17.016Z,13.20
2018-07-13T08:55:46.114Z,12.13
2018-07-13T08:58:16.833Z,11.87
2018-07-13T09:00:45.823Z,10.20
2018-07-13T09:03:14.696Z,10.20
2018-07-13T09:05:43.712Z,10.80
2018-07-13T09:08:12.596Z,11.90
2018-07-13T09:10:41.614Z,11.43
2018-07-13T09:13:10.468Z,13.13
2018-07-13T09:15:39.371Z,14.20
2018-07-13T09:18:08.251Z,15.07
2018-07-13T09:20:37.249Z,12.83
2018-07-13T09:23:06.201Z,14.03
2018-07-13T09:25:34.918Z,14.93
2018-07-13T09:28:03.731Z,16.33
2018-07-13T09:30:32.659Z,15.23
2018-07-13T09:33:01.666Z,12.47
2018-07-13T09:35:30.572Z,12.17
2018-07-13T09:37:59.467Z,11.40
2018-07-13T09:40:28.428Z,10.67
2018-07-13T09:42:59.015Z,11.50
2018-07-13T09:45:33.935Z,12.33
2018-07-13T09:48:03.126Z,10.50
2018-07-13T09:50:32.375Z,10.33
2018-07-13T09:53:01.324Z,10.00
2018-07-13T09:55:30.398Z,9.33
2018-07-13T09:57:59.064Z,9.73
2018-07-13T10:00:33.628Z,10.20
2018-07-13T10:03:02.516Z,9.13
2018-07-13T10:05:31.433Z,8.20
2018-07-13T10:08:00.413Z,7.37
2018-07-13T10:10:29.611Z,7.10
2018-07-13T10:12:58.510Z,8.40
2018-07-13T10:15:27.348Z,9.00
2018-07-13T10:17:56.268Z,9.90
2018-07-13T10:20:25.061Z,9.20
2018-07-13T10:22:54.115Z,10.37
2018-07-13T10:25:26.417Z,11.27
2018-07-13T10:27:55.643Z,10.50
2018-07-13T10:30:24.471Z,9.90
2018-07-13T10:32:53.493Z,9.57
2018-07-13T10:35:22.490Z,10.37
2018-07-13T10:37:51.716Z,9.50
2018-07-13T10:40:20.593Z,10.07
2018-07-13T10:42:49.500Z,8.90
2018-07-13T10:45:18.304Z,8.73
2018-07-13T10:47:47.201Z,8.93
2018-07-13T10:50:15.956Z,8.27
2018-07-13T10:52:44.724Z,8.90
2018-07-13T10:55:13.635Z,8.63
2018-07-13T10:57:42.419Z,7.90
2018-07-13T11:00:11.252Z,7.63
2018-07-13T11:02:40.059Z,8.23
2018-07-13T11:05:08.935Z,8.33
2018-07-13T11:07:37.915Z,7.73
2018-07-13T11:10:06.847Z,6.83
2018-07-13T11:12:35.629Z,7.00
2018-07-13T11:15:04.702Z,6.33
2018-07-13T11:17:33.472Z,7.07
2018-07-13T11:20:02.374Z,6.93
2018-07-13T11:22:31.206Z,6.10
2018-07-13T11:25:00.047Z,5.93
2018-07-13T11:27:28.861Z,5.60
2018-07-13T11:29:57.675Z,5.97
2018-07-13T11:32:26.329Z,5.60
2018-07-13T11:34:55.161Z,6.53
2018-07-13T11:37:24.021Z,6.00
2018-07-13T11:39:52.780Z,5.37
2018-07-13T11:42:21.502Z,6.10
2018-07-13T11:44:50.327Z,5.77
2018-07-13T11:47:19.480Z,5.83
2018-07-13T11:49:48.272Z,5.57
2018-07-13T11:52:17.182Z,4.70
2018-07-13T11:54:45.910Z,5.90
2018-07-13T11:57:14.821Z,6.33
2018-07-13T11:59:43.611Z,6.33
2018-07-13T12:02:12.271Z,6.57
2018-07-13T12:04:41.046Z,5.50
2018-07-13T12:07:09.867Z,5.80
2018-07-13T12:09:38.705Z,5.33
2018-07-13T12:12:07.827Z,5.90
2018-07-13T12:14:36.643Z,6.00
2018-07-13T12:17:05.585Z,5.77
2018-07-13T12:19:34.367Z,6.23
2018-07-13T12:22:03.119Z,4.53
2018-07-13T12:24:31.742Z,5.87
2018-07-13T12:27:00.622Z,6.27
2018-07-13T12:29:29.440Z,6.50
2018-07-13T12:31:58.221Z,6.20
2018-07-13T12:34:26.933Z,6.20
2018-07-13T12:36:55.726Z,7.00
2018-07-13T12:39:24.545Z,7.10
2018-07-13T12:41:53.158Z,7.20
2018-07-13T12:44:22.016Z,7.00
2018-07-13T12:46:50.875Z,6.63
2018-07-13T12:49:19.709Z,7.67
2018-07-13T12:51:48.323Z,6.40
2018-07-13T12:54:17.250Z,5.60
2018-07-13T12:56:46.029Z,6.47
2018-07-13T12:59:15.028Z,6.90
2018-07-13T13:01:43.904Z,6.30
2018-07-13T13:04:12.744Z,5.83
2018-07-13T13:06:41.531Z,6.07
2018-07-13T13:09:10.345Z,5.83
2018-07-13T13:11:39.203Z,5.50
2018-07-13T13:14:08.080Z,6.00
2018-07-13T13:16:36.877Z,6.93
2018-07-13T13:19:05.773Z,6.07
2018-07-13T13:21:34.598Z,5.03
2018-07-13T13:24:03.489Z,6.00
2018-07-13T13:26:32.299Z,6.83
2018-07-13T13:29:01.085Z,5.80
2018-07-13T13:31:30.178Z,4.67
2018-07-13T13:33:58.968Z,4.77
2018-07-13T13:36:27.828Z,5.77
2018-07-13T13:38:56.632Z,5.77
2018-07-13T13:41:25.277Z,6.10
2018-07-13T13:43:54.487Z,5.93
2018-07-13T13:46:23.348Z,5.13
2018-07-13T13:48:52.040Z,5.20
2018-07-13T13:51:20.883Z,5.07
2018-07-13T13:53:49.556Z,5.00
2018-07-13T13:56:18.397Z,5.30
2018-07-13T13:58:47.204Z,6.37
2018-07-13T14:01:15.884Z,6.13
2018-07-13T14:03:44.643Z,6.43
2018-07-13T14:06:13.491Z,6.70
2018-07-13T14:08:42.286Z,6.33
2018-07-13T14:11:11.095Z,6.10
2018-07-13T14:13:39.931Z,6.13
2018-07-13T14:16:08.743Z,6.40
2018-07-13T14:18:37.518Z,7.23
2018-07-13T14:21:06.925Z,7.10
2018-07-13T14:23:35.685Z,7.10
2018-07-13T14:26:04.847Z,7.23
2018-07-13T14:28:33.716Z,6.00
2018-07-13T14:31:02.507Z,7.53
2018-07-13T14:33:31.391Z,6.80
2018-07-13T14:36:00.165Z,6.97
2018-07-13T14:38:29.060Z,7.23
2018-07-13T14:40:57.864Z,7.33
2018-07-13T14:43:26.780Z,7.13
2018-07-13T14:45:57.162Z,7.00
2018-07-13T14:48:26.005Z,7.90
2018-07-13T14:50:54.997Z,7.57
2018-07-13T14:53:23.978Z,7.30
2018-07-13T14:55:52.852Z,6.97
2018-07-13T14:58:21.716Z,6.70
2018-07-13T15:00:50.491Z,7.03
2018-07-13T15:03:19.407Z,7.10
2018-07-13T15:05:48.290Z,6.40
2018-07-13T15:08:17.050Z,7.33
2018-07-13T15:10:45.728Z,7.03
2018-07-13T15:13:14.580Z,7.10
2018-07-13T15:15:43.458Z,6.63
2018-07-13T15:18:12.321Z,6.53
2018-07-13T15:20:41.161Z,7.03
2018-07-13T15:23:10.000Z,6.80
2018-07-13T15:25:38.899Z,5.90
2018-07-13T15:28:07.786Z,5.70
2018-07-13T15:30:36.939Z,5.80
2018-07-13T15:33:05.785Z,5.07
2018-07-13T15:35:34.644Z,5.37
2018-07-13T15:38:03.465Z,5.50
2018-07-13T15:40:32.371Z,4.73
2018-07-13T15:43:01.133Z,5.37
2018-07-13T15:45:36.026Z,5.90
2018-07-13T15:48:04.836Z,4.83
2018-07-13T15:50:33.760Z,5.07
2018-07-13T15:53:02.538Z,6.30
2018-07-13T15:55:36.862Z,4.77
2018-07-13T15:58:05.746Z,5.80
2018-07-13T16:00:34.648Z,4.80
2018-07-13T16:03:03.461Z,5.30
2018-07-13T16:05:32.336Z,4.97
2018-07-13T16:08:01.063Z,4.17
2018-07-13T16:10:29.931Z,4.20
2018-07-13T16:12:58.799Z,4.13
2018-07-13T16:15:28.001Z,4.80
2018-07-13T16:17:56.621Z,4.87
2018-07-13T16:20:25.462Z,4.10
2018-07-13T16:22:54.198Z,4.17
2018-07-13T16:25:23.168Z,4.80
2018-07-13T16:27:51.985Z,4.83
2018-07-13T16:30:20.813Z,4.10
2018-07-13T16:32:49.653Z,5.40
2018-07-13T16:35:18.432Z,5.53
2018-07-13T16:37:47.162Z,5.17
2018-07-13T16:40:15.980Z,5.53
2018-07-13T16:42:44.800Z,5.37
2018-07-13T16:45:13.712Z,5.50
2018-07-13T16:47:42.454Z,5.43
2018-07-13T16:50:11.339Z,5.80
2018-07-13T16:52:40.172Z,4.90
2018-07-13T16:55:09.053Z,6.03
2018-07-13T16:57:37.865Z,5.90
2018-07-13T17:00:06.736Z,4.97
2018-07-13T17:02:35.649Z,5.00
2018-07-13T17:05:04.525Z,5.77
2018-07-13T17:07:33.391Z,5.90
2018-07-13T17:10:02.303Z,5.27
2018-07-13T17:12:31.151Z,6.07
2018-07-13T17:15:00.025Z,5.77
2018-07-13T17:17:28.928Z,4.90
2018-07-13T17:19:57.682Z,5.70
2018-07-13T17:22:26.467Z,5.03
2018-07-13T17:24:55.293Z,5.00
2018-07-13T17:27:24.408Z,5.03
2018-07-13T17:29:53.334Z,4.70
2018-07-13T17:32:22.090Z,5.07
2018-07-13T17:34:51.211Z,5.13
2018-07-13T17:37:20.267Z,5.50
2018-07-13T17:39:49.138Z,6.40
2018-07-13T17:42:17.923Z,5.90
2018-07-13T17:44:46.756Z,6.00
2018-07-13T17:47:16.344Z,5.50
2018-07-13T17:49:45.261Z,5.27
2018-07-13T17:52:16.811Z,4.93
2018-07-13T17:54:46.027Z,4.80
2018-07-13T17:57:15.008Z,4.70
2018-07-13T17:59:43.827Z,4.10
2018-07-13T18:02:12.635Z,3.80
2018-07-13T18:04:41.357Z,3.60
2018-07-13T18:07:10.184Z,3.77
2018-07-13T18:09:38.826Z,4.07
2018-07-13T18:12:07.671Z,4.03
2018-07-13T18:14:37.160Z,4.60
2018-07-13T18:17:06.092Z,5.30
2018-07-13T18:19:35.584Z,5.60
2018-07-13T18:22:04.434Z,5.03
2018-07-13T18:24:33.212Z,5.37
2018-07-13T18:27:02.695Z,4.70
2018-07-13T18:29:31.351Z,4.57
2018-07-13T18:32:00.537Z,3.93
2018-07-13T18:34:29.429Z,4.80
2018-07-13T18:36:59.044Z,4.40
2018-07-13T18:39:27.677Z,3.70
2018-07-13T18:41:56.435Z,3.70
2018-07-13T18:44:25.274Z,3.63
2018-07-13T18:46:54.035Z,3.87
2018-07-13T18:49:22.794Z,4.20
2018-07-13T18:51:51.618Z,4.10
2018-07-13T18:54:20.334Z,4.23
2018-07-13T18:56:49.227Z,4.37
2018-07-13T18:59:17.986Z,4.50
2018-07-13T19:01:46.812Z,4.30
2018-07-13T19:04:15.570Z,4.33
2018-07-13T19:06:44.417Z,4.47
2018-07-13T19:09:13.470Z,4.73
2018-07-13T19:11:43.146Z,4.20
2018-07-13T19:14:11.952Z,4.20
2018-07-13T19:16:40.952Z,4.07
2018-07-13T19:19:10.059Z,4.10
2018-07-13T19:21:39.391Z,4.17
2018-07-13T19:24:08.143Z,4.37
2018-07-13T19:26:36.963Z,4.70
2018-07-13T19:29:06.067Z,5.07
2018-07-13T19:31:35.008Z,4.17
2018-07-13T19:34:04.320Z,4.40
2018-07-13T19:36:33.275Z,4.87
2018-07-13T19:39:01.922Z,4.70
2018-07-13T19:41:30.962Z,4.63
2018-07-13T19:43:59.962Z,4.50
2018-07-13T19:46:28.790Z,4.83
2018-07-13T19:48:57.613Z,4.93
2018-07-13T19:51:26.397Z,4.10
2018-07-13T19:53:56.392Z,4.47
2018-07-13T19:56:25.270Z,4.60
2018-07-13T19:58:54.072Z,4.50
2018-07-13T20:01:22.866Z,4.80
2018-07-13T20:03:51.546Z,4.43
2018-07-13T20:06:20.369Z,4.40
2018-07-13T20:08:49.265Z,5.17
2018-07-13T20:11:18.101Z,4.70
2018-07-13T20:13:47.146Z,4.27
2018-07-13T20:16:16.113Z,4.50
2018-07-13T20:18:44.941Z,4.10
2018-07-13T20:21:13.816Z,4.10
2018-07-13T20:23:42.719Z,3.87
2018-07-13T20:26:11.524Z,4.40
2018-07-13T20:28:40.384Z,3.87
2018-07-13T20:31:09.168Z,4.47
2018-07-13T20:33:37.982Z,4.73
2018-07-13T20:36:06.904Z,4.10
2018-07-13T20:38:35.676Z,4.57
2018-07-13T20:41:04.313Z,4.40
2018-07-13T20:43:33.111Z,3.83
2018-07-13T20:46:02.011Z,3.73
2018-07-13T20:48:30.808Z,3.63
2018-07-13T20:50:59.619Z,3.80
2018-07-13T20:53:28.247Z,4.17
2018-07-13T20:55:57.160Z,4.07
2018-07-13T20:58:26.824Z,4.50
2018-07-13T21:00:55.637Z,3.70
2018-07-13T21:03:24.401Z,4.30
2018-07-13T21:05:53.276Z,4.27
2018-07-13T21:08:22.073Z,4.60
2018-07-13T21:10:50.976Z,4.40
2018-07-13T21:13:19.792Z,4.37
2018-07-13T21:15:48.669Z,3.90
2018-07-13T21:18:17.431Z,3.67
2018-07-13T21:20:46.136Z,4.00
2018-07-13T21:23:15.000Z,4.60
2018-07-13T21:25:43.612Z,3.63
2018-07-13T21:28:12.431Z,3.50
2018-07-13T21:30:41.213Z,3.17
2018-07-13T21:33:10.060Z,3.63
2018-07-13T21:35:38.937Z,3.63
2018-07-13T21:38:07.776Z,3.57
2018-07-13T21:40:36.555Z,3.37
2018-07-13T21:43:05.436Z,3.53
2018-07-13T21:45:40.588Z,3.77
2018-07-13T21:48:09.472Z,3.43
2018-07-13T21:50:38.255Z,3.40
2018-07-13T21:53:07.002Z,3.13
2018-07-13T21:55:35.815Z,3.80
2018-07-13T21:58:04.897Z,3.27
2018-07-13T22:00:33.732Z,3.80
2018-07-13T22:03:02.641Z,3.43
2018-07-13T22:05:31.404Z,3.83
2018-07-13T22:08:00.279Z,3.60
2018-07-13T22:10:29.135Z,3.13
2018-07-13T22:12:58.090Z,3.37
2018-07-13T22:15:26.928Z,3.10
2018-07-13T22:17:55.720Z,3.23
2018-07-13T22:20:24.559Z,3.20
2018-07-13T22:22:53.338Z,2.80
2018-07-13T22:25:22.364Z,3.30
2018-07-13T22:27:51.130Z,3.20
2018-07-13T22:30:19.967Z,2.90
2018-07-13T22:32:48.770Z,2.43
2018-07-13T22:35:17.635Z,2.77
2018-07-13T22:37:46.311Z,2.93
2018-07-13T22:40:15.139Z,3.17
2018-07-13T22:42:43.952Z,2.87
2018-07-13T22:45:12.651Z,2.50
2018-07-13T22:47:41.388Z,2.80
2018-07-13T22:50:10.277Z,2.60
2018-07-13T22:52:39.065Z,2.60
2018-07-13T22:55:08.265Z,2.97
2018-07-13T22:57:37.021Z,3.10
2018-07-13T23:00:06.496Z,2.83
2018-07-13T23:02:35.360Z,2.63
2018-07-13T23:05:04.516Z,3.07
2018-07-13T23:07:33.279Z,2.57
2018-07-13T23:10:02.078Z,3.10
2018-07-13T23:12:30.892Z,3.03
2018-07-13T23:14:59.764Z,2.80
2018-07-13T23:17:28.415Z,2.60
2018-07-13T23:19:57.282Z,3.27
2018-07-13T23:22:26.080Z,2.90
2018-07-13T23:24:54.905Z,3.10
2018-07-13T23:27:23.969Z,2.97
2018-07-13T23:29:52.767Z,3.00
2018-07-13T23:32:21.598Z,2.97
2018-07-13T23:34:50.218Z,3.13
2018-07-13T23:37:19.069Z,3.30
2018-07-13T23:39:47.944Z,2.57
2018-07-13T23:42:16.837Z,3.10
2018-07-13T23:44:45.625Z,2.93
2018-07-13T23:47:14.450Z,3.13
2018-07-13T23:49:43.203Z,3.10
2018-07-13T23:52:12.133Z,2.77
2018-07-13T23:54:41.339Z,2.90
2018-07-13T23:57:10.188Z,2.80
2018-07-13T23:59:39.274Z,2.47
